Laman API Video Percuma Terbaik

AVDBAPI.COM

Cari katalog, semak rekod, dan salin URL API bersih daripada papan pemuka pantas.

Telegram Join Our Telegram Community for Updates!
Today
131
Kemaskini Hari Ini
Censored
314089
Censored Videos
Total
474268
Total Videos

Senarai Video

Rekod terkini disusun mengikut masa kemas kini.

ID Nama CODE Kategori Dikemaskini API
269922 021919-01 Temu Bual AV Amatur ~ Anak Perempuan Saya Datang Ke Temu Bual ~ 021919-01 Tanpa sensor 2025-08-29 17:45:20 API
269920 112419-001 Pemilik Ryokan Rena Yang Terlalu Ketagih Batang 112419-001 Tanpa sensor 2025-08-29 17:45:00 API
269919 110717_602 Menikmati Instruktur Memasak Cantik di Dapur 110717_602 Tanpa sensor 2025-08-29 17:44:50 API
269918 H4610-KI200607 Naomi Kodera, Gadis 23 Tahun yang Menggiurkan H4610-KI200607 Tanpa sensor 2025-08-29 17:44:40 API
269917 H0930-ORI1542 Wanita Matang 44 Tahun Yoshina Hirosaki H0930-ORI1542 Tanpa sensor 2025-08-29 17:44:30 API
269916 C0930-KI190305 Wanita Seksi 30 Tahun Yumiko Miyamoto C0930-KI190305 Tanpa sensor 2025-08-29 17:44:20 API
269915 081618-320 Ibu-Ibu Tempatan Yang Bekerja 081618-320 Tanpa sensor 2025-08-29 17:44:10 API
269914 K1368 Mangsa Wanita K1368 Tanpa sensor 2025-08-29 17:44:00 API
269913 HEYZO-138 Hatsune Loria Dengan Tubuh Meletup ERO Cup HEYZO-138 Tanpa sensor 2025-08-29 17:43:50 API
269912 FC2-PPV-4425701 Bekas pelajar dan pelajar perubatan cantik dari Persatuan Koperasi! Pertemuan lepas mengesahkan dia benar-benar menjilat lubang hidung, orang yang sangat menyambut , payudara besar yang cantik, cup F FC2-PPV-4425701 Tanpa sensor 2025-08-29 17:43:40 API
269911 022119-01 Dikongkek Oleh Anak Perempuan Yang Ditemui Semasa Dating 022119-01 Tanpa sensor 2025-08-29 17:43:30 API
269910 H4610-KI200609 Tomoko Suzuki, Gadis 19 Tahun Yang Menggiurkan H4610-KI200609 Tanpa sensor 2025-08-29 17:43:20 API
269909 112619-001 Kisah Puteri Buih Terbaik Vol.71 Yuna Sasaki 112619-001 Tanpa sensor 2025-08-29 17:43:10 API
269908 H0930-KI190727 Gadis 20 Tahun dengan Fetish Kencing H0930-KI190727 Tanpa sensor 2025-08-29 17:43:00 API
269907 110917_603 Tubuh Masokis Paling Ultimate ~ Payudara Super Besar M Cup Yang Tak Masuk Akal ~ 110917_603 Tanpa sensor 2025-08-29 17:42:50 API
269906 081818-321 Sayang, izinkan abang beli seluar dalam yang abang pakai sekarang! ~ Seluar dalam warna hydrangea yang bernoda ~ 081818-321 Tanpa sensor 2025-08-29 17:42:40 API
269905 C0930-KI190307 Wanita Cantik Ikebata Kayoko Berusia 32 Tahun C0930-KI190307 Tanpa sensor 2025-08-29 17:42:30 API
269904 H4610-KI200611 Sanae Kawase Berusia 26 Tahun H4610-KI200611 Tanpa sensor 2025-08-29 17:42:20 API
269903 K1367 Wanita Mangsa K1367 Tanpa sensor 2025-08-29 17:42:10 API
269902 022319-01 Era Seragam ~ Zaman di mana aku selalu dikentot dua kali berturut-turut ~ 022319-01 Tanpa sensor 2025-08-29 17:42:00 API
269901 H0930-KI190730 Gadis Seksi 28 Tahun Hikari Kawanishi H0930-KI190730 Tanpa sensor 2025-08-29 17:41:50 API
269900 112719-001 Buku Gambar Khemak HITOMI HITOMI 112719-001 Tanpa sensor 2025-08-29 17:41:40 API
269899 C0930-HITOZUMA1274 Miya Takashima, 34 tahun C0930-HITOZUMA1274 Tanpa sensor 2025-08-29 17:41:30 API
269898 HEYZO-139 HEY-139 Institut Bondage - Terangsang Oleh Keganasan -: Mio Futaba HEYZO-139 Tanpa sensor 2025-08-29 17:41:20 API
269897 111117_604 Perkara nakal selepas waktu sekolah 111117_604 Tanpa sensor 2025-08-29 17:41:10 API
269896 PACOPACOMAMA-082118_322 Gachi Negotiation 27 ~Nampak sopan, tapi sebenarnya perempuan ni sangat kotor dan lucah~ PACOPACOMAMA-082118_322 Tanpa sensor 2025-08-29 17:41:00 API
269894 H4610-ORI1724 Yuria Inaya, 21 tahun H4610-ORI1724 Tanpa sensor 2025-08-29 17:40:40 API
269893 FC2-PPV-4430494 Akhirnya, buka lubangmu untuk batang yang sebenar FC2-PPV-4430494 Tanpa sensor 2025-08-29 17:40:30 API
269892 112919-001 Debut Vol.53 ~ Si Cantik Kaki Panjang 170cm Dengan Pancutan Hebat ~ Jangan Bersinar 112919-001 Tanpa sensor 2025-08-29 17:40:20 API
269891 H0930-KI190801 Wanita Seksi Berusia 45 Tahun Sadako Miyashita H0930-KI190801 Tanpa sensor 2025-08-29 17:40:10 API
269890 022619-01 Anak Gadis Ketagih Batang 022619-01 Tanpa sensor 2025-08-29 17:40:00 API
269889 111417 Koleksi Model Seksi Rie Misaki 111417_605 Tanpa sensor 2025-08-29 17:39:50 API
269888 082118-322 Gachi Negotiation 27 ~ Nampak kemas, tapi sebenarnya lurah ~ 082118-322 Tanpa sensor 2025-08-29 17:39:40 API
269887 C0930-KI190312 Wanita Seksi 36 Tahun Kayoko Nishiguchi C0930-KI190312 Tanpa sensor 2025-08-29 17:39:30 API
269886 113019-001 Pavilion Penyembuhan Dewasa yang Sofistikated - Tubuh Mantap Kami Akan Melayani Anda Sehabis-habisnya 113019-001 Tanpa sensor 2025-08-29 17:39:20 API
269885 H4610-KI200613 Selfie dan Masturbasi H4610-KI200613 Tanpa sensor 2025-08-29 17:39:10 API
269884 K1369 Wanita Mangsa K1369 Tanpa sensor 2025-08-29 17:39:00 API
269883 FC2-PPV-4420877 Dengan senyuman malaikat, si comel Yumi-chan bakal buat anda gila dengan 2 babak creampie yang padu! *Edisi khas kualiti tinggi FC2-PPV-4420877 Tanpa sensor 2025-08-29 17:38:50 API
269882 022819-01 Mahukah awak minum air mani saya 022819-01 Tanpa sensor 2025-08-29 17:38:40 API
269881 082318-323 Dokumentasi Penggambaran Pertama Isteri Amatir Mikimoto Eri 082318-323 Tanpa sensor 2025-08-29 17:38:30 API
269880 H0930-KI190804 Keiko Tanabe Wanita Matang 37 Tahun H0930-KI190804 Tanpa sensor 2025-08-29 17:38:20 API
269879 120517_003 Misaki Ai Kencing Basah 120517_003 Tanpa sensor 2025-08-29 17:38:10 API
269878 C0930-KI190314 Anri Tomita, 22 tahun C0930-KI190314 Tanpa sensor 2025-08-29 17:38:00 API
269877 H4610-KI200614 Hiroko Nagatomo Berusia 27 Tahun H4610-KI200614 Tanpa sensor 2025-08-29 17:37:50 API
269875 HONE-272 Yukari Orihara HONE-272 Mosaik 2025-08-29 17:37:30 API
269874 030219-01 Saya suka dimarahi 030219-01 Tanpa sensor 2025-08-29 17:37:20 API
269873 120319-001 Cuckold ~ Saya dah kata pergi ke perjumpaan alumni ~ Akari Satsuki 120319-001 Tanpa sensor 2025-08-29 17:37:10 API
269872 H0930-TK0005 Yui Shibaura Berusia 29 Tahun H0930-TK0005 Tanpa sensor 2025-08-29 17:37:00 API
269871 HEY-139 Institut Penyelidikan Bondage - Saya terangsang apabila dikasari: Mio Futaba HEY-139 Tanpa sensor 2025-08-29 17:36:50 API
269870 120517_006 Natsumi Hirose Kencing 120517_006 Tanpa sensor 2025-08-29 17:36:40 API